Time;durP1;ratioP1;P1;durP2;ratioP2;P2;SDS_P1;SDS_P2;PMS_P1;PMS_P2;Temp;Humidity;BMP_temperature;BMP_pressure;BME280_temperature;BME280_humidity;BME280_pressure;Samples;Min_cycle;Max_cycle;Signal;HPM_P1;HPM_P2
2021/01/11 00:03:48;;;;;;;37.67;25.73;;;;;;;2.72;97.01;102165.16;10380239;28;20038;-75
2021/01/11 00:08:48;;;;;;;41.42;24.98;;;;;;;2.86;96.58;102182.19;10375897;28;20393;-76
2021/01/11 00:13:49;;;;;;;43.88;24.98;;;;;;;2.99;97.09;102198.69;10376795;28;20160;-78
2021/01/11 00:18:49;;;;;;;44.35;25.80;;;;;;;2.67;97.29;102141.16;10365334;28;20055;-80
2021/01/11 00:23:50;;;;;;;43.78;24.90;;;;;;;2.63;96.61;102124.88;10355415;28;20049;-79
2021/01/11 00:28:51;;;;;;;40.55;26.00;;;;;;;3.01;97.00;102172.50;10376819;28;20053;-76
2021/01/11 00:33:52;;;;;;;43.17;26.35;;;;;;;3.00;97.53;102176.25;10374704;28;20042;-83
2021/01/11 00:38:53;;;;;;;47.55;28.95;;;;;;;3.03;97.03;102175.72;10358417;28;20132;-80
2021/01/11 00:43:53;;;;;;;45.45;27.15;;;;;;;2.70;97.56;102141.38;10369746;28;20045;-79
2021/01/11 00:48:55;;;;;;;49.22;28.27;;;;;;;2.92;97.89;102154.41;10352391;28;20146;-77
2021/01/11 00:53:55;;;;;;;49.80;29.92;;;;;;;2.16;97.28;102029.25;10370022;28;20057;-78
2021/01/11 00:58:56;;;;;;;52.92;31.10;;;;;;;2.57;97.64;102093.16;10368527;28;20037;-75
2021/01/11 01:03:56;;;;;;;52.88;29.88;;;;;;;2.56;97.55;102091.53;10352390;28;20037;-77
2021/01/11 01:08:57;;;;;;;57.00;31.65;;;;;;;2.64;98.35;102099.00;10392401;28;20140;-76
2021/01/11 01:13:58;;;;;;;61.10;32.05;;;;;;;2.87;98.39;102156.28;10373157;28;20215;-76
2021/01/11 01:18:59;;;;;;;61.78;32.72;;;;;;;2.87;98.45;102134.91;10382454;28;20057;-78
2021/01/11 01:23:59;;;;;;;63.90;34.13;;;;;;;2.58;98.38;102089.41;10356197;28;20701;-76
2021/01/11 01:29:00;;;;;;;62.13;33.00;;;;;;;2.90;98.57;102135.16;10376513;28;20049;-75
2021/01/11 01:34:00;;;;;;;72.25;34.95;;;;;;;2.64;98.96;102104.34;10358243;28;20785;-81
2021/01/11 01:39:01;;;;;;;67.20;35.08;;;;;;;2.82;99.06;102122.38;10365117;28;20046;-76
2021/01/11 01:44:01;;;;;;;75.25;37.30;;;;;;;2.93;99.19;102139.94;10384535;28;20505;-77
2021/01/11 01:49:02;;;;;;;72.85;34.92;;;;;;;2.59;99.16;102090.97;10376892;28;20045;-76
2021/01/11 01:54:02;;;;;;;76.90;37.42;;;;;;;2.86;99.22;102139.47;10349820;28;20053;-80
2021/01/11 01:59:03;;;;;;;73.15;35.22;;;;;;;2.91;98.81;102142.09;10380627;28;20068;-75
2021/01/11 02:04:04;;;;;;;80.88;36.30;;;;;;;2.96;99.50;102150.09;10361618;28;20037;-76
2021/01/11 02:09:08;;;;;;;76.28;35.10;;;;;;;2.65;99.06;102096.03;10382037;28;20038;-80
2021/01/11 02:14:28;;;;;;;79.93;35.35;;;;;;;2.72;99.11;102090.41;10356353;28;20182;-76
2021/01/11 02:19:59;;;;;;;81.93;35.92;;;;;;;2.94;99.59;102120.19;10366376;28;20042;-83
2021/01/11 02:25:29;;;;;;;81.95;36.63;;;;;;;2.61;99.60;102072.81;10354108;28;20111;-78
2021/01/11 02:30:34;;;;;;;86.65;37.40;;;;;;;2.99;99.88;102126.56;10363146;28;20477;-81
2021/01/11 02:35:59;;;;;;;80.40;37.58;;;;;;;3.02;100.00;102126.03;10380857;28;20029;-77
2021/01/11 02:41:00;;;;;;;98.15;40.70;;;;;;;2.93;99.76;102123.94;10348605;28;20033;-76
2021/01/11 02:46:01;;;;;;;82.18;39.80;;;;;;;2.94;99.57;102114.84;10397031;28;20776;-77
2021/01/11 02:51:18;;;;;;;78.30;37.42;;;;;;;3.02;100.00;102104.66;10376015;28;20049;-76
2021/01/11 02:56:41;;;;;;;81.00;39.10;;;;;;;3.00;100.00;102096.13;10396164;28;20075;-80
2021/01/11 03:02:02;;;;;;;80.00;38.15;;;;;;;2.97;100.00;102098.28;10370176;28;20050;-77
2021/01/11 03:07:04;;;;;;;79.50;39.72;;;;;;;2.68;99.56;102062.63;10378131;28;20044;-76
2021/01/11 03:12:07;;;;;;;76.07;38.22;;;;;;;3.01;100.00;102129.75;10389112;28;20041;-77
2021/01/11 03:17:08;;;;;;;83.35;38.75;;;;;;;2.69;99.65;102061.59;10374587;28;20544;-76
2021/01/11 03:22:08;;;;;;;68.90;37.10;;;;;;;2.43;99.42;102019.00;10383749;28;20049;-77
2021/01/11 03:27:09;;;;;;;72.40;37.92;;;;;;;3.04;99.36;102091.84;10387296;28;20045;-79
2021/01/11 03:32:11;;;;;;;73.25;37.45;;;;;;;2.90;99.57;102076.41;10367986;28;20465;-78
2021/01/11 03:37:12;;;;;;;66.18;36.92;;;;;;;2.99;99.57;102091.84;10379578;28;20358;-77
2021/01/11 03:42:12;;;;;;;71.15;38.33;;;;;;;2.37;99.21;101988.06;10391333;28;20053;-79
2021/01/11 03:47:13;;;;;;;65.18;36.17;;;;;;;2.92;99.10;102062.78;10383521;28;20028;-76
2021/01/11 03:52:13;;;;;;;55.67;33.20;;;;;;;2.88;99.13;102067.88;10367420;28;20121;-76
2021/01/11 03:57:14;;;;;;;56.13;33.10;;;;;;;2.83;98.75;102054.56;10346973;28;20172;-76
2021/01/11 04:02:14;;;;;;;58.88;31.70;;;;;;;2.95;98.34;102073.69;10368894;28;20440;-76
2021/01/11 04:07:15;;;;;;;49.10;29.80;;;;;;;2.97;97.98;102087.59;10367217;28;20490;-76
2021/01/11 04:12:15;;;;;;;50.50;29.95;;;;;;;2.95;97.81;102057.69;10382220;28;20038;-76
2021/01/11 04:17:16;;;;;;;51.50;30.60;;;;;;;2.96;97.71;102075.31;10381545;28;20084;-76
2021/01/11 04:22:17;;;;;;;45.40;27.75;;;;;;;3.06;97.89;102084.34;10374428;28;20153;-77
2021/01/11 04:27:21;;;;;;;30.27;20.67;;;;;;;3.09;97.62;102041.03;10366715;28;20052;-75
2021/01/11 04:32:21;;;;;;;31.02;19.02;;;;;;;2.74;96.43;101965.44;10371975;28;20041;-78
2021/01/11 04:37:22;;;;;;;28.10;19.30;;;;;;;2.11;96.12;101878.03;10387169;28;20055;-76
2021/01/11 04:42:41;;;;;;;29.48;18.90;;;;;;;2.98;96.20;102002.91;10355552;28;20040;-76
2021/01/11 04:47:43;;;;;;;28.15;19.05;;;;;;;3.09;95.80;102030.34;10369482;28;20029;-76
2021/01/11 04:52:45;;;;;;;29.10;18.83;;;;;;;2.80;95.47;101980.34;10375439;28;20505;-75
2021/01/11 04:57:50;;;;;;;29.03;21.03;;;;;;;2.83;95.52;101985.13;10366963;28;20076;-75
2021/01/11 05:03:02;;;;;;;30.75;19.30;;;;;;;3.12;95.57;102011.88;10375175;28;20036;-77
2021/01/11 05:08:03;;;;;;;29.52;19.20;;;;;;;2.62;95.41;101946.28;10357171;28;20118;-78
2021/01/11 05:13:05;;;;;;;31.92;18.73;;;;;;;2.84;95.76;101986.69;10356057;28;20041;-74
2021/01/11 05:18:16;;;;;;;28.13;19.15;;;;;;;3.16;95.52;102020.13;10354420;28;20493;-74
2021/01/11 05:23:17;;;;;;;30.25;19.63;;;;;;;2.67;95.18;101938.25;10382113;28;20045;-74
2021/01/11 05:28:18;;;;;;;29.88;19.67;;;;;;;3.08;95.48;102015.38;10373135;28;20049;-76
2021/01/11 05:33:27;;;;;;;31.60;20.80;;;;;;;3.03;95.36;101994.06;10384132;28;20128;-81
2021/01/11 05:38:33;;;;;;;35.53;20.45;;;;;;;2.72;95.56;101967.56;10383593;28;20148;-82
2021/01/11 05:43:33;;;;;;;29.15;19.30;;;;;;;3.15;95.71;102019.34;10380427;28;20107;-76
2021/01/11 05:48:35;;;;;;;25.50;17.88;;;;;;;2.59;95.64;101962.84;10380342;28;20051;-75
2021/01/11 05:53:40;;;;;;;28.80;19.02;;;;;;;3.04;95.17;102012.47;10360255;28;20037;-75
2021/01/11 05:58:42;;;;;;;30.98;20.23;;;;;;;3.11;95.40;102014.84;10378113;28;20096;-76
2021/01/11 06:03:42;;;;;;;30.45;19.83;;;;;;;3.10;95.62;102010.56;10349116;28;20040;-81
2021/01/11 06:08:45;;;;;;;30.53;19.93;;;;;;;3.10;95.32;101983.84;10365910;28;20044;-83
2021/01/11 06:13:48;;;;;;;30.13;20.20;;;;;;;3.08;95.74;101996.69;10383297;28;20407;-83
2021/01/11 06:18:49;;;;;;;30.08;18.77;;;;;;;2.82;95.44;101935.44;10364058;28;20397;-81
2021/01/11 06:24:13;;;;;;;29.25;19.45;;;;;;;3.19;95.07;101976.81;10344749;28;20041;-76
2021/01/11 06:29:31;;;;;;;30.67;18.98;;;;;;;2.92;96.36;101951.41;10388794;28;20564;-77
2021/01/11 06:34:37;;;;;;;36.72;19.35;;;;;;;3.02;96.73;101955.06;10340899;28;20472;-76
2021/01/11 06:39:37;;;;;;;26.98;17.08;;;;;;;2.94;95.88;101933.22;10366126;28;20037;-76
2021/01/11 06:44:39;;;;;;;26.20;18.05;;;;;;;3.13;96.38;101951.25;10365940;28;20033;-77
2021/01/11 06:49:40;;;;;;;27.83;17.20;;;;;;;2.79;96.32;101866.59;10388457;28;20588;-76
2021/01/11 06:54:45;;;;;;;25.48;17.88;;;;;;;3.29;95.96;101939.31;10367635;28;20056;-78
2021/01/11 06:59:47;;;;;;;23.73;17.35;;;;;;;3.31;95.35;101926.44;10369073;28;20049;-80
2021/01/11 07:04:52;;;;;;;20.70;15.57;;;;;;;3.36;95.01;101918.41;10346994;28;20041;-82
2021/01/11 07:09:57;;;;;;;20.60;13.57;;;;;;;3.10;94.49;101871.63;10388301;28;20192;-83
2021/01/11 07:15:06;;;;;;;22.17;14.85;;;;;;;3.32;94.79;101895.19;10391876;28;20057;-77
2021/01/11 07:20:11;;;;;;;20.25;13.82;;;;;;;3.45;94.65;101926.56;10348780;28;20052;-78
2021/01/11 07:25:18;;;;;;;21.38;13.15;;;;;;;3.55;94.37;101915.78;10349576;28;20037;-77
2021/01/11 07:30:19;;;;;;;19.38;14.13;;;;;;;3.23;94.50;101875.53;10372879;28;20068;-76
2021/01/11 07:35:20;;;;;;;16.95;12.57;;;;;;;3.62;94.00;101915.44;10371963;28;20041;-78
2021/01/11 07:40:22;;;;;;;16.65;11.73;;;;;;;3.61;94.16;101908.50;10404178;28;20083;-78
2021/01/11 07:45:24;;;;;;;20.15;12.30;;;;;;;3.64;93.64;101913.25;10387539;28;20037;-76
2021/01/11 07:50:28;;;;;;;16.17;11.43;;;;;;;3.71;93.49;101919.06;10385438;28;20168;-77
2021/01/11 07:55:29;;;;;;;17.20;12.00;;;;;;;3.69;93.13;101905.22;10370087;28;20429;-79
2021/01/11 08:00:30;;;;;;;17.13;11.82;;;;;;;3.71;93.38;101895.00;10379744;28;20094;-76
2021/01/11 08:05:30;;;;;;;18.70;12.75;;;;;;;3.66;92.99;101884.38;10379391;28;20486;-78
2021/01/11 08:10:35;;;;;;;17.40;12.48;;;;;;;3.73;93.59;101906.22;10356839;28;20042;-77
2021/01/11 08:15:38;;;;;;;19.13;14.30;;;;;;;3.56;93.55;101879.16;10351528;28;20163;-78
2021/01/11 08:20:38;;;;;;;19.05;14.13;;;;;;;3.16;93.44;101827.75;10380697;28;20932;-76
2021/01/11 08:25:39;;;;;;;21.63;13.55;;;;;;;3.52;94.03;101899.50;10349665;28;20095;-76
2021/01/11 08:30:40;;;;;;;22.30;14.73;;;;;;;3.13;93.96;101844.38;10381928;28;20156;-78
2021/01/11 08:35:41;;;;;;;20.73;15.43;;;;;;;3.46;94.98;101906.00;10374495;28;20044;-77
2021/01/11 08:40:45;;;;;;;21.88;14.75;;;;;;;3.39;94.95;101891.09;10357616;28;20458;-77
2021/01/11 08:45:52;;;;;;;21.42;14.95;;;;;;;3.50;94.67;101901.66;10363707;28;20121;-81
2021/01/11 08:50:52;;;;;;;20.95;14.88;;;;;;;3.53;94.29;101890.44;10380531;28;20037;-76
2021/01/11 08:56:09;;;;;;;18.10;14.02;;;;;;;3.57;94.41;101886.06;10385775;28;20096;-80
2021/01/11 09:01:14;;;;;;;21.30;15.02;;;;;;;3.26;93.93;101832.97;10368512;28;20769;-77
2021/01/11 09:06:40;;;;;;;18.38;13.48;;;;;;;3.66;93.13;101900.41;10381703;28;20385;-82
2021/01/11 09:11:42;;;;;;;19.83;14.07;;;;;;;3.43;93.84;101869.16;10367391;28;20076;-76
2021/01/11 09:16:43;;;;;;;18.67;13.47;;;;;;;3.43;93.88;101859.25;10360603;28;20053;-77
2021/01/11 09:21:55;;;;;;;17.93;12.60;;;;;;;3.61;93.80;101876.41;10377645;28;20048;-76
2021/01/11 09:26:56;;;;;;;17.10;12.77;;;;;;;3.27;93.85;101829.25;10354090;28;20037;-75
2021/01/11 09:31:57;;;;;;;17.75;12.65;;;;;;;3.73;93.16;101890.16;10381783;28;20056;-75
2021/01/11 09:36:57;;;;;;;21.50;12.48;;;;;;;3.67;92.88;101875.28;10384730;28;20050;-80
2021/01/11 09:41:58;;;;;;;18.83;11.88;;;;;;;3.53;92.96;101847.66;10372413;28;20026;-80
2021/01/11 09:46:59;;;;;;;23.15;14.27;;;;;;;3.85;92.52;101886.28;10364985;28;20125;-76
2021/01/11 09:52:00;;;;;;;15.52;11.48;;;;;;;3.59;92.55;101849.16;10374760;28;20037;-75
2021/01/11 09:57:01;;;;;;;20.80;12.07;;;;;;;3.16;92.43;101793.03;10373245;28;20047;-80
2021/01/11 10:02:01;;;;;;;17.48;12.13;;;;;;;3.96;92.74;101890.41;10366986;28;20037;-77
2021/01/11 10:07:02;;;;;;;19.80;12.20;;;;;;;3.85;92.94;101875.59;10356318;28;20045;-78
2021/01/11 10:12:04;;;;;;;18.73;12.27;;;;;;;3.87;92.21;101852.03;10387028;28;20548;-77
2021/01/11 10:17:05;;;;;;;20.80;12.30;;;;;;;3.72;92.22;101823.59;10365704;28;20192;-78
2021/01/11 10:22:05;;;;;;;15.93;11.52;;;;;;;4.06;92.69;101874.22;10327382;28;20602;-77
2021/01/11 10:27:06;;;;;;;17.85;12.52;;;;;;;4.07;92.48;101865.13;10317759;28;20060;-77
2021/01/11 10:32:06;;;;;;;19.55;13.63;;;;;;;3.94;92.60;101858.59;10330479;28;20042;-76
2021/01/11 10:37:07;;;;;;;19.02;13.27;;;;;;;3.97;92.79;101852.66;10333941;28;20042;-77
2021/01/11 10:42:07;;;;;;;20.73;13.95;;;;;;;3.93;92.69;101845.53;10339987;28;20447;-76
2021/01/11 10:47:07;;;;;;;17.23;12.85;;;;;;;4.07;93.29;101857.09;10341434;28;20041;-78
2021/01/11 10:52:08;;;;;;;21.80;12.93;;;;;;;4.03;92.81;101840.03;10330270;28;20045;-79
2021/01/11 10:57:08;;;;;;;17.92;13.15;;;;;;;3.95;92.54;101833.44;10333129;28;20053;-75
2021/01/11 11:02:09;;;;;;;24.50;14.20;;;;;;;4.11;92.38;101831.31;10336013;28;20506;-77
2021/01/11 11:07:12;;;;;;;19.30;13.55;;;;;;;4.15;92.76;101816.28;10346023;28;20042;-76
2021/01/11 11:12:12;;;;;;;21.30;13.57;;;;;;;3.27;92.40;101671.59;10334764;28;20031;-77
2021/01/11 11:17:14;;;;;;;19.55;14.23;;;;;;;4.05;92.45;101773.63;10324439;28;20182;-75
2021/01/11 11:22:14;;;;;;;19.93;14.10;;;;;;;4.10;92.93;101792.28;10347642;28;20070;-79
2021/01/11 11:27:15;;;;;;;18.83;13.23;;;;;;;4.05;92.69;101781.66;10340700;28;20039;-78
2021/01/11 11:32:19;;;;;;;21.48;13.90;;;;;;;4.11;92.96;101777.81;10338043;28;20077;-81
2021/01/11 11:37:20;;;;;;;21.77;14.52;;;;;;;4.11;93.47;101745.69;10346291;28;20133;-76
2021/01/11 11:42:20;;;;;;;21.55;15.10;;;;;;;4.14;93.33;101766.53;10345626;28;20430;-74
2021/01/11 11:47:21;;;;;;;22.05;14.85;;;;;;;4.20;93.18;101746.63;10342134;28;20104;-75
2021/01/11 11:52:21;;;;;;;23.23;15.95;;;;;;;4.34;92.90;101743.97;10336895;28;20030;-75
2021/01/11 11:57:22;;;;;;;21.40;14.38;;;;;;;4.40;92.44;101739.34;10353261;28;20061;-74
2021/01/11 12:02:22;;;;;;;25.00;15.60;;;;;;;4.40;92.71;101725.97;10340081;28;20052;-74
2021/01/11 12:07:24;;;;;;;21.95;14.00;;;;;;;4.45;92.48;101701.75;10339831;28;20926;-74
2021/01/11 12:12:25;;;;;;;20.63;13.88;;;;;;;4.49;92.79;101699.28;10337691;28;20038;-74
2021/01/11 12:17:26;;;;;;;22.63;13.40;;;;;;;4.55;92.62;101696.22;10334487;28;20495;-74
2021/01/11 12:22:27;;;;;;;19.42;13.82;;;;;;;3.81;91.83;101576.63;10375797;28;20054;-74
2021/01/11 12:27:27;;;;;;;18.98;12.95;;;;;;;4.19;92.08;101613.91;10380057;28;20499;-74
2021/01/11 12:32:28;;;;;;;17.60;11.98;;;;;;;4.49;92.07;101665.25;10363976;28;20049;-74
2021/01/11 12:37:28;;;;;;;26.77;13.55;;;;;;;4.65;91.93;101668.44;10386124;28;20092;-74
2021/01/11 12:42:29;;;;;;;19.13;13.88;;;;;;;4.74;91.85;101639.06;10391322;28;20037;-74
2021/01/11 12:47:38;;;;;;;21.27;14.23;;;;;;;4.55;91.33;101577.59;10381392;28;20611;-74
2021/01/11 12:52:39;;;;;;;18.55;13.05;;;;;;;4.59;91.26;101565.22;10382139;28;20038;-74
2021/01/11 12:57:39;;;;;;;24.02;13.60;;;;;;;4.86;90.55;101610.66;10381985;28;20045;-76
2021/01/11 13:02:40;;;;;;;17.05;12.32;;;;;;;4.84;91.34;101614.75;10363899;28;20046;-76
2021/01/11 13:07:41;;;;;;;20.08;12.30;;;;;;;4.80;91.63;101579.75;10380334;28;20056;-74
2021/01/11 13:12:41;;;;;;;20.33;13.60;;;;;;;4.98;91.51;101579.88;10348796;28;20072;-75
2021/01/11 13:17:43;;;;;;;19.25;12.05;;;;;;;4.98;91.05;101586.03;10347004;28;20129;-74
2021/01/11 13:22:43;;;;;;;19.10;12.05;;;;;;;4.98;91.23;101588.72;10332959;28;20057;-75
2021/01/11 13:27:44;;;;;;;17.80;12.63;;;;;;;4.68;91.59;101538.50;10338181;28;20052;-77
2021/01/11 13:32:44;;;;;;;22.65;12.30;;;;;;;5.02;91.56;101576.28;10329003;28;20073;-75
2021/01/11 13:37:45;;;;;;;17.85;11.88;;;;;;;5.11;90.59;101583.63;10338376;28;20104;-76
2021/01/11 13:42:45;;;;;;;15.63;11.38;;;;;;;5.20;90.88;101576.44;10335999;28;20034;-75
2021/01/11 13:47:48;;;;;;;19.92;11.75;;;;;;;5.26;90.47;101569.84;10332536;28;20053;-76
2021/01/11 13:52:48;;;;;;;19.83;11.48;;;;;;;5.16;91.01;101554.03;10332342;28;20053;-75
2021/01/11 13:57:49;;;;;;;14.98;10.60;;;;;;;5.25;91.28;101562.91;10335561;28;20046;-74
2021/01/11 14:02:49;;;;;;;16.85;12.10;;;;;;;4.70;91.60;101493.47;10337137;28;20368;-73
2021/01/11 14:07:50;;;;;;;18.88;11.77;;;;;;;5.08;91.82;101553.66;10337120;28;20442;-73
2021/01/11 14:12:50;;;;;;;18.77;12.65;;;;;;;5.16;92.42;101564.75;10339120;28;20088;-74
2021/01/11 14:17:51;;;;;;;19.60;13.32;;;;;;;5.09;93.11;101560.59;10337030;28;20053;-75
2021/01/11 14:22:51;;;;;;;23.15;13.77;;;;;;;5.08;93.22;101553.66;10373933;28;20053;-75
2021/01/11 14:27:52;;;;;;;19.40;13.93;;;;;;;5.07;93.42;101519.91;10377334;28;20069;-75
2021/01/11 14:32:52;;;;;;;24.58;15.13;;;;;;;4.91;93.55;101510.63;10369579;28;20041;-75
2021/01/11 14:37:52;;;;;;;21.23;14.50;;;;;;;4.94;93.80;101504.69;10358080;28;20045;-76
2021/01/11 14:42:53;;;;;;;19.70;14.93;;;;;;;5.08;93.97;101537.56;10387304;28;20095;-83
2021/01/11 14:47:54;;;;;;;23.30;15.00;;;;;;;5.08;94.79;101542.94;10352331;28;20334;-80
2021/01/11 14:53:04;;;;;;;22.70;15.77;;;;;;;5.03;94.93;101535.03;10370921;28;20045;-79
2021/01/11 14:58:04;;;;;;;25.73;16.35;;;;;;;4.99;95.25;101528.69;10390287;28;20199;-79
2021/01/11 15:03:05;;;;;;;23.00;16.55;;;;;;;5.09;94.96;101512.34;10350974;28;20124;-84
2021/01/11 15:08:05;;;;;;;23.38;15.95;;;;;;;5.01;95.25;101497.03;10381443;28;20085;-80
2021/01/11 15:13:06;;;;;;;25.00;16.95;;;;;;;5.01;95.14;101483.63;10381561;28;20029;-84
2021/01/11 15:18:06;;;;;;;23.13;16.88;;;;;;;5.14;95.51;101507.97;10376655;28;20054;-75
2021/01/11 15:23:07;;;;;;;27.50;17.17;;;;;;;5.12;95.58;101515.53;10382821;28;20065;-74
2021/01/11 15:28:08;;;;;;;27.92;18.25;;;;;;;5.15;95.89;101520.25;10373920;28;20052;-74
2021/01/11 15:33:08;;;;;;;27.30;17.85;;;;;;;5.12;96.13;101504.81;10366470;28;20613;-74
2021/01/11 15:38:08;;;;;;;31.30;18.00;;;;;;;5.13;96.27;101506.38;10352434;28;20052;-74
2021/01/11 15:43:09;;;;;;;26.60;18.17;;;;;;;4.74;96.84;101448.91;10392987;28;20568;-74
2021/01/11 15:48:10;;;;;;;30.52;18.05;;;;;;;4.94;96.57;101456.47;10364438;28;20102;-76
2021/01/11 15:53:10;;;;;;;30.05;18.00;;;;;;;4.85;96.53;101426.16;10385003;28;20053;-75
2021/01/11 15:58:11;;;;;;;28.80;17.98;;;;;;;5.12;96.95;101478.00;10369422;28;20489;-76
2021/01/11 16:03:11;;;;;;;30.60;19.27;;;;;;;5.13;97.30;101466.16;10391887;28;20102;-81
2021/01/11 16:08:14;;;;;;;29.00;17.55;;;;;;;5.07;96.90;101460.94;10380189;28;20148;-82
2021/01/11 16:13:15;;;;;;;30.27;18.33;;;;;;;5.19;96.74;101479.16;10380826;28;20033;-75
2021/01/11 16:18:15;;;;;;;25.13;17.35;;;;;;;4.92;97.09;101437.22;10373366;28;20053;-77
2021/01/11 16:23:16;;;;;;;30.58;17.08;;;;;;;4.83;97.48;101406.91;10353984;28;20080;-76
2021/01/11 16:28:17;;;;;;;29.45;17.67;;;;;;;5.18;97.63;101449.97;10373569;28;20117;-79
2021/01/11 16:33:18;;;;;;;24.63;15.65;;;;;;;4.92;97.51;101399.72;10360525;28;20060;-77
2021/01/11 16:38:18;;;;;;;22.75;13.52;;;;;;;5.23;97.44;101420.38;10357710;28;20668;-75
2021/01/11 16:43:18;;;;;;;25.90;12.65;;;;;;;5.28;96.74;101412.19;10374555;28;20033;-78
2021/01/11 16:48:19;;;;;;;20.92;11.90;;;;;;;5.37;95.90;101420.28;10374144;28;20044;-74
2021/01/11 16:53:21;;;;;;;;;;;;;;;5.40;95.30;101415.06;10369761;28;20066;-77
2021/01/11 16:58:22;;;;;;;16.50;9.85;;;;;;;5.46;94.53;101387.03;10362384;28;19976;-78
2021/01/11 17:03:22;;;;;;;18.60;7.63;;;;;;;5.27;93.69;101348.97;10348009;28;20041;-77
2021/01/11 17:08:23;;;;;;;11.43;6.22;;;;;;;5.45;93.40;101366.66;10340656;28;20409;-76
2021/01/11 17:13:23;;;;;;;13.45;5.20;;;;;;;5.53;92.75;101369.69;10371194;28;20067;-75
2021/01/11 17:18:24;;;;;;;13.65;4.85;;;;;;;5.56;92.35;101395.88;10357678;28;20132;-78
2021/01/11 17:23:32;;;;;;;14.07;4.18;;;;;;;5.32;91.85;101332.72;10561054;27;20391;-75
2021/01/11 17:28:33;;;;;;;9.88;3.40;;;;;;;4.57;91.06;101228.13;10527192;28;20052;-76
2021/01/11 17:33:34;;;;;;;7.43;2.10;;;;;;;5.32;90.17;101316.66;10492285;28;20556;-79
2021/01/11 17:38:34;;;;;;;9.98;2.70;;;;;;;5.51;89.74;101341.28;10529487;28;20155;-78
2021/01/11 17:43:34;;;;;;;8.52;2.63;;;;;;;5.34;89.91;101314.44;10506677;28;20039;-77
2021/01/11 17:48:35;;;;;;;8.38;2.28;;;;;;;5.33;90.19;101304.81;10515870;28;20401;-76
2021/01/11 17:53:36;;;;;;;7.10;2.55;;;;;;;5.67;90.62;101359.63;10532529;28;20040;-76
2021/01/11 17:58:37;;;;;;;8.52;2.58;;;;;;;5.58;90.21;101329.31;10526300;28;20392;-80
2021/01/11 18:03:37;;;;;;;10.75;2.53;;;;;;;5.70;90.36;101332.19;10513594;28;20079;-81
2021/01/11 18:08:38;;;;;;;10.40;2.78;;;;;;;5.66;90.47;101320.50;10502199;28;20040;-82
2021/01/11 18:13:41;;;;;;;11.85;3.78;;;;;;;5.40;89.93;101275.66;10490096;28;20248;-75
2021/01/11 18:18:42;;;;;;;8.95;2.10;;;;;;;5.69;89.69;101311.81;10519313;28;20032;-75
2021/01/11 18:23:42;;;;;;;7.07;2.03;;;;;;;5.80;89.74;101326.50;10490057;28;20067;-74
2021/01/11 18:28:43;;;;;;;6.40;2.00;;;;;;;5.77;89.50;101316.41;10465411;28;20037;-74
2021/01/11 18:33:43;;;;;;;6.80;2.30;;;;;;;5.81;89.23;101301.25;10457701;28;20130;-74
2021/01/11 18:38:43;;;;;;;6.63;1.65;;;;;;;5.90;89.07;101299.38;10453750;28;20254;-74
2021/01/11 18:43:44;;;;;;;7.45;1.60;;;;;;;6.03;88.69;101296.88;10450686;28;20193;-75
2021/01/11 18:48:45;;;;;;;7.22;1.60;;;;;;;5.59;88.58;101242.38;10439114;28;20037;-75
2021/01/11 18:53:46;;;;;;;10.32;2.13;;;;;;;5.74;88.04;101252.66;10433775;28;20065;-75
2021/01/11 18:58:46;;;;;;;7.28;2.10;;;;;;;5.71;88.48;101227.25;10404441;28;20517;-77
2021/01/11 19:03:47;;;;;;;8.07;2.38;;;;;;;4.96;88.67;101116.69;10409092;28;20049;-76
2021/01/11 19:08:47;;;;;;;11.38;4.68;;;;;;;5.76;89.35;101237.00;10412619;28;20408;-77
2021/01/11 19:13:47;;;;;;;9.70;3.65;;;;;;;5.80;89.25;101240.66;10431055;28;20049;-76
2021/01/11 19:18:48;;;;;;;10.73;3.47;;;;;;;5.74;89.89;101233.88;10386495;28;20116;-77
2021/01/11 19:23:50;;;;;;;12.52;3.80;;;;;;;6.08;90.22;101261.81;10423640;28;20045;-80
2021/01/11 19:28:50;;;;;;;14.17;5.50;;;;;;;5.69;90.17;101207.19;10449951;28;20040;-80
2021/01/11 19:33:51;;;;;;;11.38;3.53;;;;;;;5.99;91.17;101258.34;10449623;28;20571;-79
2021/01/11 19:38:52;;;;;;;8.70;4.28;;;;;;;5.66;92.51;101218.56;10436353;28;20041;-78
2021/01/11 19:43:52;;;;;;;7.53;3.50;;;;;;;5.54;93.17;101210.38;10427229;28;20045;-76
2021/01/11 19:48:53;;;;;;;10.10;3.65;;;;;;;5.88;94.49;101264.03;10449277;28;20056;-78
2021/01/11 19:53:53;;;;;;;14.45;3.60;;;;;;;5.88;95.17;101280.13;10436747;28;20040;-77
2021/01/11 19:58:54;;;;;;;12.95;3.53;;;;;;;5.40;95.72;101200.56;10435177;28;20394;-75
2021/01/11 20:03:57;;;;;;;14.77;2.70;;;;;;;5.64;96.26;101236.88;10410119;28;20064;-74
2021/01/11 20:08:57;;;;;;;8.68;2.70;;;;;;;5.56;96.19;101226.94;10430657;28;20071;-77
2021/01/11 20:13:58;;;;;;;13.77;3.35;;;;;;;5.42;95.49;101182.28;10438524;28;20043;-76
2021/01/11 20:18:58;;;;;;;9.05;2.85;;;;;;;5.42;97.03;101171.56;10449571;28;20063;-74
2021/01/11 20:23:59;;;;;;;8.07;3.20;;;;;;;5.63;97.08;101197.75;10428460;28;20047;-74
2021/01/11 20:28:59;;;;;;;13.95;3.65;;;;;;;5.77;97.75;101219.84;10451473;28;20037;-75
2021/01/11 20:34:00;;;;;;;13.60;3.60;;;;;;;5.79;98.43;101232.94;10423251;28;20043;-77
2021/01/11 20:39:00;;;;;;;16.98;3.92;;;;;;;5.41;98.64;101170.00;10443285;28;20063;-75
2021/01/11 20:44:01;;;;;;;13.23;3.65;;;;;;;5.76;99.43;101215.56;10436071;28;20118;-74
2021/01/11 20:49:01;;;;;;;11.25;3.03;;;;;;;5.59;99.64;101188.75;10442626;28;20056;-72
2021/01/11 20:54:02;;;;;;;10.02;3.58;;;;;;;5.67;99.03;101187.97;10450543;28;20555;-73
2021/01/11 20:59:02;;;;;;;15.38;3.47;;;;;;;5.58;99.65;101179.16;10432154;28;20063;-74
2021/01/11 21:04:03;;;;;;;10.70;3.60;;;;;;;5.85;99.36;101189.50;10432623;28;20045;-75
2021/01/11 21:09:06;;;;;;;12.43;3.50;;;;;;;5.89;98.82;101205.78;10405184;28;20053;-77
2021/01/11 21:14:07;;;;;;;18.20;2.75;;;;;;;5.97;98.00;101185.41;10439942;28;20037;-76
2021/01/11 21:19:07;;;;;;;15.40;2.85;;;;;;;5.90;98.28;101170.59;10416523;28;20519;-77
2021/01/11 21:24:08;;;;;;;10.82;2.65;;;;;;;5.68;98.88;101125.94;10439216;28;20044;-73
2021/01/11 21:29:19;;;;;;;13.60;2.78;;;;;;;5.57;99.88;101102.47;10444293;28;20033;-74
2021/01/11 21:34:20;;;;;;;19.13;3.08;;;;;;;5.87;100.00;101148.94;10447762;28;20032;-76
2021/01/11 21:39:21;;;;;;;14.65;3.72;;;;;;;5.82;100.00;101147.22;10458730;28;20045;-77
2021/01/11 21:44:23;;;;;;;13.25;3.72;;;;;;;5.81;100.00;101134.94;10470038;28;20086;-77
2021/01/11 21:49:23;;;;;;;17.35;3.95;;;;;;;5.38;100.00;101084.81;10417988;28;20047;-75
2021/01/11 21:54:24;;;;;;;14.60;4.07;;;;;;;5.71;100.00;101124.53;10469334;28;20047;-82
2021/01/11 21:59:24;;;;;;;25.65;5.10;;;;;;;5.73;100.00;101122.31;10452431;28;20127;-80
2021/01/11 22:04:25;;;;;;;23.48;5.50;;;;;;;5.70;100.00;101101.50;10462328;28;20079;-76
2021/01/11 22:09:26;;;;;;;14.18;5.20;;;;;;;5.75;100.00;101093.28;10451418;28;20140;-77
2021/01/11 22:14:26;;;;;;;17.33;5.53;;;;;;;5.73;100.00;101095.50;10473409;28;20040;-76
2021/01/11 22:19:27;;;;;;;19.88;5.88;;;;;;;5.49;100.00;101059.25;10466305;28;20056;-76
2021/01/11 22:24:27;;;;;;;14.70;5.85;;;;;;;5.77;100.00;101101.78;10477932;28;20056;-76
2021/01/11 22:29:28;;;;;;;21.92;7.50;;;;;;;5.60;100.00;101069.66;10490124;28;20072;-75
2021/01/11 22:34:28;;;;;;;21.73;7.68;;;;;;;5.89;100.00;101098.44;10473551;28;20130;-75
2021/01/11 22:39:29;;;;;;;26.25;7.32;;;;;;;5.89;100.00;101076.97;10482118;28;20051;-76
2021/01/11 22:44:29;;;;;;;22.80;7.13;;;;;;;5.88;100.00;101065.47;10478278;28;20694;-76
2021/01/11 22:49:30;;;;;;;24.85;7.78;;;;;;;5.90;100.00;101052.53;10478454;28;20445;-76
2021/01/11 22:54:30;;;;;;;28.95;8.63;;;;;;;5.93;100.00;101051.88;10463001;28;20605;-79
2021/01/11 22:59:31;;;;;;;29.65;8.98;;;;;;;5.59;100.00;100993.00;10475295;28;20040;-78